createdAt,value
2023-01-22T00:01:21.596Z,4.60
2023-01-22T00:03:49.574Z,3.80
2023-01-22T00:06:16.732Z,3.97
2023-01-22T00:08:44.972Z,5.07
2023-01-22T00:11:12.323Z,4.18
2023-01-22T00:13:39.707Z,4.32
2023-01-22T00:16:08.001Z,5.25
2023-01-22T00:18:35.151Z,4.90
2023-01-22T00:21:02.484Z,4.55
2023-01-22T00:23:29.626Z,4.75
2023-01-22T00:26:05.928Z,4.70
2023-01-22T00:28:33.004Z,4.70
2023-01-22T00:31:06.262Z,6.15
2023-01-22T00:33:34.383Z,4.95
2023-01-22T00:36:17.059Z,4.55
2023-01-22T00:38:44.817Z,4.10
2023-01-22T00:41:14.290Z,5.82
2023-01-22T00:43:41.958Z,4.00
2023-01-22T00:46:15.630Z,5.35
2023-01-22T00:48:45.348Z,5.00
2023-01-22T00:51:13.184Z,4.82
2023-01-22T00:53:43.846Z,4.88
2023-01-22T00:56:13.803Z,4.93
2023-01-22T00:58:41.593Z,4.95
2023-01-22T01:01:08.960Z,5.03
2023-01-22T01:03:37.763Z,4.90
2023-01-22T01:06:12.997Z,5.68
2023-01-22T01:11:17.466Z,4.78
2023-01-22T01:16:26.651Z,5.13
2023-01-22T01:19:08.048Z,5.85
2023-01-22T01:21:36.192Z,5.70
2023-01-22T01:24:03.909Z,6.10
2023-01-22T01:26:33.408Z,5.22
2023-01-22T01:29:04.274Z,5.88
2023-01-22T01:31:31.823Z,4.90
2023-01-22T01:33:59.229Z,5.18
2023-01-22T01:39:13.678Z,6.00
2023-01-22T01:41:40.670Z,5.93
2023-01-22T01:44:21.343Z,5.20
2023-01-22T01:46:53.639Z,4.75
2023-01-22T01:49:48.897Z,5.18
2023-01-22T01:52:18.884Z,5.82
2023-01-22T01:54:52.398Z,5.55
2023-01-22T01:57:26.517Z,6.07
2023-01-22T01:59:54.686Z,5.65
2023-01-22T02:02:22.433Z,5.57
2023-01-22T02:04:51.174Z,5.75
2023-01-22T02:07:19.337Z,6.32
2023-01-22T02:09:46.990Z,5.82
2023-01-22T02:12:13.994Z,6.13
2023-01-22T02:14:45.899Z,5.93
2023-01-22T02:17:19.830Z,6.15
2023-01-22T02:19:50.819Z,6.30
2023-01-22T02:22:27.513Z,5.90
2023-01-22T02:24:55.027Z,6.35
2023-01-22T02:27:22.109Z,6.00
2023-01-22T02:29:50.836Z,6.38
2023-01-22T02:32:18.106Z,6.50
2023-01-22T02:34:45.657Z,5.40
2023-01-22T02:37:12.846Z,5.82
2023-01-22T02:39:39.981Z,5.90
2023-01-22T02:42:08.772Z,5.45
2023-01-22T02:44:36.899Z,5.65
2023-01-22T02:47:04.103Z,5.90
2023-01-22T02:49:32.324Z,6.15
2023-01-22T02:52:00.779Z,6.28
2023-01-22T02:54:27.787Z,5.72
2023-01-22T02:56:56.034Z,5.90
2023-01-22T02:59:23.801Z,6.32
2023-01-22T03:01:51.797Z,6.18
2023-01-22T03:04:18.763Z,5.25
2023-01-22T03:06:47.126Z,5.97
2023-01-22T03:09:17.457Z,6.10
2023-01-22T03:11:46.876Z,6.32
2023-01-22T03:14:39.231Z,5.68
2023-01-22T03:17:26.995Z,5.82
2023-01-22T03:20:12.264Z,6.55
2023-01-22T03:22:39.141Z,6.97
2023-01-22T03:25:06.605Z,6.88
2023-01-22T03:27:33.655Z,7.00
2023-01-22T03:30:00.667Z,6.60
2023-01-22T03:32:32.670Z,6.07
2023-01-22T03:34:59.769Z,6.38
2023-01-22T03:37:32.516Z,5.93
2023-01-22T03:40:00.167Z,6.13
2023-01-22T03:42:35.012Z,6.07
2023-01-22T03:45:01.959Z,6.00
2023-01-22T03:47:29.086Z,6.50
2023-01-22T03:49:55.976Z,6.78
2023-01-22T03:52:22.933Z,5.97
2023-01-22T03:54:49.862Z,5.90
2023-01-22T03:57:17.512Z,6.20
2023-01-22T03:59:44.566Z,6.38
2023-01-22T04:02:12.015Z,6.97
2023-01-22T04:04:51.554Z,6.90
2023-01-22T04:07:18.516Z,6.32
2023-01-22T04:09:46.406Z,6.93
2023-01-22T04:12:13.313Z,6.72
2023-01-22T04:14:40.271Z,6.95
2023-01-22T04:17:08.428Z,8.15
2023-01-22T04:20:00.945Z,7.18
2023-01-22T04:22:51.162Z,6.80
2023-01-22T04:25:18.139Z,8.02
2023-01-22T04:27:45.720Z,8.35
2023-01-22T04:30:18.115Z,7.53
2023-01-22T04:32:47.661Z,7.53
2023-01-22T04:35:22.582Z,8.95
2023-01-22T04:37:53.492Z,8.32
2023-01-22T04:40:20.847Z,7.82
2023-01-22T04:42:49.278Z,9.05
2023-01-22T04:45:16.528Z,7.88
2023-01-22T04:47:46.530Z,9.95
2023-01-22T04:50:21.340Z,8.57
2023-01-22T04:52:52.012Z,8.52
2023-01-22T04:55:19.915Z,7.35
2023-01-22T04:57:56.529Z,8.55
2023-01-22T05:00:24.597Z,8.68
2023-01-22T05:03:01.576Z,7.50
2023-01-22T05:05:31.721Z,8.82
2023-01-22T05:08:00.143Z,7.88
2023-01-22T05:10:28.473Z,8.55
2023-01-22T05:12:56.028Z,8.75
2023-01-22T05:15:25.378Z,8.07
2023-01-22T05:17:55.967Z,8.52
2023-01-22T05:20:22.877Z,8.38
2023-01-22T05:22:49.974Z,8.18
2023-01-22T05:25:20.921Z,8.75
2023-01-22T05:27:47.894Z,8.88
2023-01-22T05:30:24.748Z,8.75
2023-01-22T05:32:59.322Z,9.57
2023-01-22T05:35:27.986Z,9.07
2023-01-22T05:37:56.635Z,9.27
2023-01-22T05:40:24.281Z,9.07
2023-01-22T05:42:52.629Z,9.40
2023-01-22T05:45:19.671Z,8.88
2023-01-22T05:48:02.932Z,9.30
2023-01-22T05:50:39.267Z,10.23
2023-01-22T05:53:10.071Z,9.35
2023-01-22T05:55:37.735Z,10.27
2023-01-22T05:58:06.416Z,9.77
2023-01-22T06:00:35.146Z,9.95
2023-01-22T06:03:04.796Z,9.30
2023-01-22T06:05:42.016Z,9.52
2023-01-22T06:08:08.899Z,9.23
2023-01-22T06:10:48.033Z,9.40
2023-01-22T06:13:14.961Z,9.57
2023-01-22T06:15:44.036Z,8.80
2023-01-22T06:18:25.428Z,9.65
2023-01-22T06:21:21.068Z,10.13
2023-01-22T06:23:48.115Z,10.18
2023-01-22T06:26:15.082Z,10.40
2023-01-22T06:28:42.215Z,9.82
2023-01-22T06:31:09.465Z,9.90
2023-01-22T06:33:38.353Z,10.27
2023-01-22T06:36:06.409Z,10.13
2023-01-22T06:38:33.619Z,11.02
2023-01-22T06:41:04.078Z,10.85
2023-01-22T06:43:32.740Z,9.93
2023-01-22T06:45:59.882Z,10.23
2023-01-22T06:48:56.423Z,10.82
2023-01-22T06:51:23.410Z,8.85
2023-01-22T06:53:50.936Z,10.65
2023-01-22T06:56:20.028Z,10.60
2023-01-22T06:58:47.061Z,10.43
2023-01-22T07:01:13.955Z,10.15
2023-01-22T07:03:40.797Z,10.75
2023-01-22T07:06:09.088Z,10.50
2023-01-22T07:08:35.988Z,10.25
2023-01-22T07:11:03.095Z,10.40
2023-01-22T07:13:30.165Z,10.02
2023-01-22T07:16:01.847Z,10.40
2023-01-22T07:18:29.583Z,10.30
2023-01-22T07:21:02.249Z,10.35
2023-01-22T07:23:30.245Z,10.30
2023-01-22T07:25:58.061Z,9.35
2023-01-22T07:28:24.963Z,9.18
2023-01-22T07:30:52.193Z,8.43
2023-01-22T07:33:19.328Z,7.93
2023-01-22T07:35:57.361Z,8.35
2023-01-22T07:38:28.068Z,8.13
2023-01-22T07:41:01.642Z,7.93
2023-01-22T07:43:28.927Z,10.68
2023-01-22T07:45:57.950Z,8.20
2023-01-22T07:48:26.037Z,10.02
2023-01-22T07:50:53.134Z,11.13
2023-01-22T07:53:20.502Z,8.63
2023-01-22T07:55:47.625Z,6.72
2023-01-22T07:58:14.708Z,6.63
2023-01-22T08:00:41.747Z,7.20
2023-01-22T08:03:13.487Z,7.90
2023-01-22T08:05:42.777Z,9.65
2023-01-22T08:08:20.512Z,8.85
2023-01-22T08:10:47.788Z,9.23
2023-01-22T08:13:14.947Z,8.40
2023-01-22T08:15:43.060Z,6.53
2023-01-22T08:18:11.516Z,7.10
2023-01-22T08:20:38.709Z,9.60
2023-01-22T08:23:05.648Z,11.30
2023-01-22T08:25:32.627Z,7.03
2023-01-22T08:28:04.954Z,5.53
2023-01-22T08:30:43.465Z,6.25
2023-01-22T08:33:12.689Z,6.75
2023-01-22T08:35:39.928Z,5.90
2023-01-22T08:38:06.847Z,9.40
2023-01-22T08:40:34.860Z,8.70
2023-01-22T08:43:02.918Z,10.10
2023-01-22T08:45:29.795Z,20.38
2023-01-22T08:48:00.337Z,8.90
2023-01-22T08:50:29.149Z,9.20
2023-01-22T08:52:57.967Z,9.68
2023-01-22T08:55:27.592Z,8.70
2023-01-22T08:57:56.566Z,8.57
2023-01-22T09:00:24.986Z,7.65
2023-01-22T09:02:51.913Z,7.53
2023-01-22T09:05:18.814Z,9.15
2023-01-22T09:08:58.236Z,8.40
2023-01-22T09:11:25.169Z,9.40
2023-01-22T09:13:54.976Z,10.50
2023-01-22T09:16:25.745Z,10.10
2023-01-22T09:18:53.246Z,9.98
2023-01-22T09:21:20.405Z,10.68
2023-01-22T09:23:47.346Z,10.52
2023-01-22T09:26:14.249Z,11.57
2023-01-22T09:28:41.404Z,10.98
2023-01-22T09:31:13.725Z,9.85
2023-01-22T09:33:40.672Z,11.27
2023-01-22T09:36:14.376Z,11.45
2023-01-22T09:38:42.929Z,10.75
2023-01-22T09:41:38.539Z,11.48
2023-01-22T09:44:20.392Z,9.63
2023-01-22T09:46:58.722Z,10.57
2023-01-22T09:49:36.927Z,10.90
2023-01-22T09:52:06.184Z,11.88
2023-01-22T09:54:33.691Z,11.30
2023-01-22T09:57:05.084Z,12.20
2023-01-22T09:59:43.732Z,12.05
2023-01-22T10:02:37.788Z,11.35
2023-01-22T10:05:30.211Z,13.95
2023-01-22T10:08:21.676Z,11.27
2023-01-22T10:10:50.837Z,12.15
2023-01-22T10:13:29.744Z,13.15
2023-01-22T10:15:57.550Z,12.52
2023-01-22T10:18:55.836Z,14.00
2023-01-22T10:21:31.360Z,12.68
2023-01-22T10:23:59.700Z,15.25
2023-01-22T10:26:48.864Z,14.23
2023-01-22T10:29:41.049Z,15.48
2023-01-22T10:32:29.519Z,14.57
2023-01-22T10:35:06.949Z,15.95
2023-01-22T10:37:50.985Z,15.82
2023-01-22T10:40:26.222Z,14.88
2023-01-22T10:45:31.121Z,14.77
2023-01-22T10:48:18.469Z,15.73
2023-01-22T10:50:47.112Z,14.52
2023-01-22T10:53:32.069Z,13.73
2023-01-22T10:56:03.598Z,14.57
2023-01-22T10:58:37.725Z,14.27
2023-01-22T11:01:25.029Z,15.60
2023-01-22T11:03:52.083Z,15.15
2023-01-22T11:06:29.331Z,16.92
2023-01-22T11:09:31.004Z,15.18
2023-01-22T11:12:12.995Z,15.32
2023-01-22T11:14:40.170Z,15.07
2023-01-22T11:17:33.909Z,14.23
2023-01-22T11:20:18.407Z,15.65
2023-01-22T11:23:00.325Z,16.10
2023-01-22T11:25:38.695Z,14.07
2023-01-22T11:28:21.538Z,14.40
2023-01-22T11:31:19.058Z,14.35
2023-01-22T11:34:11.210Z,14.32
2023-01-22T11:36:54.018Z,14.77
2023-01-22T11:42:50.878Z,13.80
2023-01-22T11:45:59.380Z,14.63
2023-01-22T11:48:55.200Z,14.38
2023-01-22T11:51:47.138Z,13.32
2023-01-22T11:54:59.759Z,14.70
2023-01-22T11:57:41.783Z,14.77
2023-01-22T12:00:38.898Z,12.02
2023-01-22T12:03:11.961Z,19.80
2023-01-22T12:06:15.347Z,27.38
2023-01-22T12:09:07.205Z,16.08
2023-01-22T12:11:59.637Z,12.65
2023-01-22T12:15:00.240Z,15.88
2023-01-22T12:18:22.663Z,18.75
2023-01-22T12:21:22.796Z,13.75
2023-01-22T12:24:25.783Z,13.70
2023-01-22T12:27:20.171Z,15.95
2023-01-22T12:30:15.981Z,14.35
2023-01-22T12:32:51.601Z,14.75
2023-01-22T12:35:22.155Z,14.77
2023-01-22T12:38:12.711Z,14.35
2023-01-22T12:41:19.876Z,13.07
2023-01-22T12:44:03.840Z,14.95
2023-01-22T12:47:21.650Z,13.55
2023-01-22T12:49:53.960Z,16.20
2023-01-22T12:52:39.096Z,14.98
2023-01-22T12:55:31.481Z,15.63
2023-01-22T12:57:59.195Z,14.70
2023-01-22T13:00:39.316Z,15.30
2023-01-22T13:03:32.892Z,14.82
2023-01-22T13:06:32.039Z,16.73
2023-01-22T13:09:00.582Z,14.43
2023-01-22T13:11:40.236Z,14.25
2023-01-22T13:14:41.401Z,14.93
2023-01-22T13:17:25.786Z,14.75
2023-01-22T13:19:52.894Z,13.98
2023-01-22T13:22:28.415Z,12.27
2023-01-22T13:24:58.976Z,13.05
2023-01-22T13:27:31.121Z,14.10
2023-01-22T13:30:21.595Z,14.45
2023-01-22T13:32:49.243Z,12.57
2023-01-22T13:35:19.714Z,13.68
2023-01-22T13:37:51.630Z,14.98
2023-01-22T13:40:26.278Z,13.10
2023-01-22T13:42:55.617Z,13.13
2023-01-22T13:45:27.784Z,14.80
2023-01-22T13:47:59.897Z,12.77
2023-01-22T13:50:30.733Z,12.48
2023-01-22T13:53:01.159Z,12.75
2023-01-22T13:55:30.137Z,13.05
2023-01-22T13:58:01.585Z,12.23
2023-01-22T14:00:33.733Z,13.40
2023-01-22T14:03:01.949Z,13.13
2023-01-22T14:05:38.976Z,12.98
2023-01-22T14:08:10.476Z,11.82
2023-01-22T14:10:39.534Z,12.23
2023-01-22T14:13:10.503Z,13.13
2023-01-22T14:15:39.575Z,12.00
2023-01-22T14:18:18.232Z,12.70
2023-01-22T14:20:48.676Z,12.30
2023-01-22T14:23:16.137Z,12.57
2023-01-22T14:25:52.721Z,13.85
2023-01-22T14:28:21.838Z,12.00
2023-01-22T14:30:49.245Z,13.25
2023-01-22T14:33:29.867Z,13.15
2023-01-22T14:35:57.235Z,13.50
2023-01-22T14:38:26.203Z,11.93
2023-01-22T14:40:53.576Z,13.13
2023-01-22T14:43:20.694Z,14.00
2023-01-22T14:45:47.867Z,13.45
2023-01-22T14:48:20.583Z,12.50
2023-01-22T14:50:49.784Z,13.30
2023-01-22T14:53:19.254Z,12.85
2023-01-22T14:55:46.516Z,11.73
2023-01-22T14:58:13.499Z,11.98
2023-01-22T15:00:40.495Z,12.88
2023-01-22T15:03:07.468Z,14.00
2023-01-22T15:05:35.813Z,12.02
2023-01-22T15:08:03.031Z,12.52
2023-01-22T15:10:33.065Z,12.93
2023-01-22T15:13:00.231Z,11.82
2023-01-22T15:15:28.414Z,12.80
2023-01-22T15:17:57.062Z,12.68
2023-01-22T15:20:24.865Z,11.80
2023-01-22T15:22:52.204Z,12.07
2023-01-22T15:25:19.473Z,13.05
2023-01-22T15:27:46.553Z,11.90
2023-01-22T15:30:15.397Z,12.07
2023-01-22T15:32:42.365Z,11.00
2023-01-22T15:35:10.126Z,9.80
2023-01-22T15:37:37.373Z,9.82
2023-01-22T15:40:05.454Z,10.50
2023-01-22T15:42:35.572Z,10.60
2023-01-22T15:45:04.810Z,10.18
2023-01-22T15:47:31.757Z,9.98
2023-01-22T15:49:58.866Z,10.32
2023-01-22T15:52:25.824Z,8.75
2023-01-22T15:54:53.887Z,10.02
2023-01-22T15:57:21.017Z,10.13
2023-01-22T15:59:48.090Z,10.20
2023-01-22T16:02:15.071Z,10.32
2023-01-22T16:04:42.074Z,9.75
2023-01-22T16:07:11.392Z,10.10
2023-01-22T16:09:38.806Z,9.95
2023-01-22T16:12:09.170Z,9.43
2023-01-22T16:14:36.283Z,9.45
2023-01-22T16:17:03.430Z,9.15
2023-01-22T16:19:30.400Z,9.52
2023-01-22T16:21:57.296Z,8.95
2023-01-22T16:24:24.300Z,8.52
2023-01-22T16:26:51.547Z,9.10
2023-01-22T16:29:18.915Z,8.93
2023-01-22T16:31:45.938Z,8.85
2023-01-22T16:34:17.913Z,8.63
2023-01-22T16:36:46.336Z,8.60
2023-01-22T16:39:22.965Z,9.07
2023-01-22T16:41:52.073Z,7.35
2023-01-22T16:44:26.349Z,9.10
2023-01-22T16:46:57.576Z,9.50
2023-01-22T16:49:31.247Z,8.35
2023-01-22T16:52:20.715Z,9.52
2023-01-22T16:54:49.459Z,8.35
2023-01-22T16:57:16.582Z,7.90
2023-01-22T16:59:43.775Z,9.15
2023-01-22T17:02:16.592Z,9.32
2023-01-22T17:04:44.812Z,8.73
2023-01-22T17:07:27.462Z,9.50
2023-01-22T17:09:58.857Z,9.20
2023-01-22T17:12:26.496Z,9.45
2023-01-22T17:14:53.450Z,8.85
2023-01-22T17:17:20.330Z,9.77
2023-01-22T17:19:47.284Z,9.95
2023-01-22T17:22:14.452Z,9.15
2023-01-22T17:24:41.722Z,9.32
2023-01-22T17:27:08.945Z,10.63
2023-01-22T17:29:36.203Z,9.88
2023-01-22T17:32:04.719Z,10.02
2023-01-22T17:34:32.023Z,10.45
2023-01-22T17:36:59.153Z,9.05
2023-01-22T17:39:26.093Z,9.25
2023-01-22T17:41:53.003Z,9.57
2023-01-22T17:44:20.024Z,10.07
2023-01-22T17:46:49.074Z,10.73
2023-01-22T17:49:16.622Z,10.48
2023-01-22T17:51:43.585Z,11.10
2023-01-22T17:54:10.542Z,11.38
2023-01-22T17:56:43.075Z,10.93
2023-01-22T17:59:12.166Z,10.98
2023-01-22T18:01:40.337Z,10.60
2023-01-22T18:04:11.362Z,10.75
2023-01-22T18:06:40.708Z,11.18
2023-01-22T18:09:09.807Z,11.48
2023-01-22T18:11:39.143Z,10.50
2023-01-22T18:14:13.725Z,11.35
2023-01-22T18:16:43.253Z,10.98
2023-01-22T18:19:10.710Z,11.00
2023-01-22T18:21:39.329Z,10.13
2023-01-22T18:24:11.776Z,10.93
2023-01-22T18:26:39.295Z,11.95
2023-01-22T18:29:06.666Z,12.38
2023-01-22T18:31:34.641Z,11.73
2023-01-22T18:34:05.539Z,12.07
2023-01-22T18:36:37.763Z,10.85
2023-01-22T18:39:12.791Z,12.35
2023-01-22T18:41:40.703Z,12.65
2023-01-22T18:44:09.331Z,12.50
2023-01-22T18:46:37.260Z,12.43
2023-01-22T18:49:10.561Z,11.70
2023-01-22T18:51:37.900Z,12.40
2023-01-22T18:54:05.583Z,12.15
2023-01-22T18:56:33.308Z,12.20
2023-01-22T18:59:01.467Z,11.98
2023-01-22T19:01:33.478Z,13.15
2023-01-22T19:04:07.709Z,12.32
2023-01-22T19:06:38.197Z,11.98
2023-01-22T19:09:08.294Z,11.95
2023-01-22T19:11:40.207Z,12.38
2023-01-22T19:14:09.218Z,14.20
2023-01-22T19:16:38.351Z,12.82
2023-01-22T19:19:11.440Z,12.30
2023-01-22T19:21:43.090Z,12.98
2023-01-22T19:24:11.539Z,14.43
2023-01-22T19:26:39.184Z,13.30
2023-01-22T19:29:11.514Z,13.95
2023-01-22T19:31:46.453Z,12.13
2023-01-22T19:36:48.349Z,11.18
2023-01-22T19:39:15.807Z,11.77
2023-01-22T19:41:43.308Z,12.40
2023-01-22T19:44:11.676Z,10.65
2023-01-22T19:46:40.110Z,13.27
2023-01-22T19:49:08.630Z,11.35
2023-01-22T19:51:36.187Z,11.50
2023-01-22T19:54:05.657Z,11.20
2023-01-22T19:56:36.235Z,11.85
2023-01-22T19:59:11.126Z,10.40
2023-01-22T20:01:39.195Z,9.75
2023-01-22T20:04:13.897Z,9.93
2023-01-22T20:06:41.567Z,9.95
2023-01-22T20:09:08.991Z,10.70
2023-01-22T20:11:36.218Z,12.57
2023-01-22T20:14:04.030Z,9.43
2023-01-22T20:16:31.472Z,8.88
2023-01-22T20:18:59.960Z,9.02
2023-01-22T20:21:28.654Z,9.10
2023-01-22T20:23:55.861Z,9.20
2023-01-22T20:26:23.672Z,10.13
2023-01-22T20:28:51.392Z,9.07
2023-01-22T20:31:23.418Z,10.18
2023-01-22T20:33:57.059Z,8.48
2023-01-22T20:36:29.100Z,8.95
2023-01-22T20:38:57.611Z,8.55
2023-01-22T20:41:27.518Z,9.13
2023-01-22T20:43:55.508Z,8.93
2023-01-22T20:46:25.631Z,7.75
2023-01-22T20:48:55.905Z,8.52
2023-01-22T20:51:28.363Z,8.25
2023-01-22T20:53:57.573Z,8.10
2023-01-22T20:56:31.508Z,8.43
2023-01-22T20:59:12.203Z,8.43
2023-01-22T21:01:40.308Z,7.55
2023-01-22T21:04:08.109Z,8.20
2023-01-22T21:06:37.458Z,8.00
2023-01-22T21:09:05.700Z,8.02
2023-01-22T21:11:35.110Z,7.88
2023-01-22T21:14:07.492Z,8.18
2023-01-22T21:16:39.915Z,9.13
2023-01-22T21:19:17.012Z,8.05
2023-01-22T21:21:44.294Z,9.25
2023-01-22T21:24:11.269Z,19.15
2023-01-22T21:26:39.054Z,13.77
2023-01-22T21:29:13.969Z,10.38
2023-01-22T21:31:41.533Z,10.73
2023-01-22T21:34:10.451Z,12.07
2023-01-22T21:36:47.364Z,10.98
2023-01-22T21:39:18.441Z,12.00
2023-01-22T21:41:45.997Z,11.40
2023-01-22T21:44:36.425Z,10.60
2023-01-22T21:47:05.378Z,11.48
2023-01-22T21:49:34.892Z,11.98
2023-01-22T21:52:06.154Z,11.45
2023-01-22T21:54:41.328Z,10.43
2023-01-22T21:59:39.518Z,10.90
2023-01-22T22:02:11.966Z,8.80
2023-01-22T22:04:40.176Z,10.48
2023-01-22T22:07:07.204Z,11.23
2023-01-22T22:09:34.148Z,10.23
2023-01-22T22:12:02.770Z,10.50
2023-01-22T22:14:30.097Z,11.40
2023-01-22T22:16:57.675Z,9.77
2023-01-22T22:19:25.218Z,10.50
2023-01-22T22:21:52.388Z,10.70
2023-01-22T22:24:20.265Z,10.50
2023-01-22T22:26:47.137Z,12.05
2023-01-22T22:29:14.699Z,12.18
2023-01-22T22:31:42.244Z,12.85
2023-01-22T22:34:09.531Z,12.23
2023-01-22T22:36:36.594Z,13.73
2023-01-22T22:39:06.309Z,11.80
2023-01-22T22:41:39.539Z,12.98
2023-01-22T22:44:10.199Z,12.55
2023-01-22T22:46:41.189Z,12.88
2023-01-22T22:49:13.247Z,12.20
2023-01-22T22:51:43.462Z,12.57
2023-01-22T22:54:19.845Z,15.25
2023-01-22T22:56:49.468Z,14.70
2023-01-22T22:59:19.615Z,13.23
2023-01-22T23:01:51.359Z,13.32
2023-01-22T23:04:18.542Z,14.50
2023-01-22T23:06:46.673Z,14.15
2023-01-22T23:09:18.469Z,14.82
2023-01-22T23:11:46.624Z,14.95
2023-01-22T23:14:13.782Z,14.35
2023-01-22T23:16:43.441Z,14.13
2023-01-22T23:19:24.328Z,15.57
2023-01-22T23:21:55.588Z,15.82
2023-01-22T23:24:23.267Z,15.88
2023-01-22T23:26:50.303Z,16.35
2023-01-22T23:29:23.442Z,15.95
2023-01-22T23:31:51.239Z,15.18
2023-01-22T23:34:21.424Z,15.65
2023-01-22T23:36:49.994Z,16.23
2023-01-22T23:39:19.838Z,15.07
2023-01-22T23:41:46.859Z,17.90
2023-01-22T23:44:13.853Z,16.98
2023-01-22T23:46:41.925Z,16.30
2023-01-22T23:49:09.716Z,14.73
2023-01-22T23:51:38.249Z,17.70
2023-01-22T23:54:05.267Z,17.08
2023-01-22T23:56:32.270Z,16.55
2023-01-22T23:58:59.815Z,15.40
